createdAt,value
2022-08-16T00:02:31.293Z,7.3
2022-08-16T00:04:35.144Z,6.1
2022-08-16T00:06:39.362Z,7.6
2022-08-16T00:08:45.863Z,9.2
2022-08-16T00:10:46.897Z,11.9
2022-08-16T00:12:51.059Z,13.6
2022-08-16T00:14:56.545Z,9.2
2022-08-16T00:17:15.850Z,6.1
2022-08-16T00:21:09.379Z,7.9
2022-08-16T00:22:15.284Z,8.1
2022-08-16T00:24:31.218Z,9.6
2022-08-16T00:26:35.540Z,29.4
2022-08-16T00:28:24.484Z,7.4
2022-08-16T00:30:31.257Z,13.1
2022-08-16T00:36:47.081Z,8.9
2022-08-16T00:38:46.972Z,8.7
2022-08-16T00:40:53.698Z,11
2022-08-16T00:42:55.020Z,18.9
2022-08-16T00:47:06.495Z,18.7
2022-08-16T00:49:19.589Z,7.3
2022-08-16T00:51:15.968Z,12.1
2022-08-16T00:53:17.985Z,7
2022-08-16T00:55:22.216Z,7.3
2022-08-16T00:57:25.859Z,11.2
2022-08-16T00:59:32.876Z,13.6
2022-08-16T01:01:36.555Z,14.5
2022-08-16T01:03:41.639Z,6.1
2022-08-16T01:07:52.100Z,13.6
2022-08-16T01:09:52.295Z,36
2022-08-16T01:14:03.031Z,8.1
2022-08-16T01:16:10.124Z,10
2022-08-16T01:18:40.536Z,9.7
2022-08-16T01:19:15.301Z,10.5
2022-08-16T01:21:22.536Z,8.1
2022-08-16T01:23:22.138Z,12.3
2022-08-16T01:27:34.423Z,31.4
2022-08-16T01:31:42.495Z,8.1
2022-08-16T01:33:44.838Z,28
2022-08-16T01:35:52.497Z,11.7
2022-08-16T01:37:53.111Z,13.7
2022-08-16T01:39:56.449Z,16.9
2022-08-16T01:42:03.199Z,19.7
2022-08-16T01:44:07.132Z,9.6
2022-08-16T01:46:37.471Z,9
2022-08-16T01:54:30.953Z,13.2
2022-08-16T02:00:42.954Z,11.7
2022-08-16T02:02:52.176Z,12.5
2022-08-16T02:04:51.215Z,11.6
2022-08-16T02:06:54.783Z,10.2
2022-08-16T02:08:58.705Z,9.1
2022-08-16T02:11:05.510Z,8.3
2022-08-16T02:13:09.441Z,11.3
2022-08-16T02:15:13.361Z,16.5
2022-08-16T02:17:31.376Z,9.7
2022-08-16T02:19:59.164Z,9.2
2022-08-16T02:21:39.259Z,12
2022-08-16T02:25:52.747Z,15.1
2022-08-16T02:32:03.928Z,10.6
2022-08-16T02:36:14.105Z,22.9
2022-08-16T02:40:20.393Z,9.2
2022-08-16T02:42:24.333Z,7.8
2022-08-16T02:46:33.823Z,16.1
2022-08-16T02:50:54.633Z,14
2022-08-16T02:52:47.028Z,11.3
2022-08-16T02:54:55.231Z,14.4
2022-08-16T02:56:54.775Z,11.2
2022-08-16T02:58:58.719Z,9.4
2022-08-16T03:01:02.650Z,13.1
2022-08-16T03:03:10.545Z,13.7
2022-08-16T03:07:17.307Z,18.4
2022-08-16T03:09:21.260Z,10.2
2022-08-16T03:11:25.214Z,11.1
2022-08-16T03:12:30.121Z,13.3
2022-08-16T03:14:32.548Z,11
2022-08-16T03:16:39.178Z,12.2
2022-08-16T03:18:40.681Z,14
2022-08-16T03:20:55.491Z,12.4
2022-08-16T03:22:51.180Z,10.2
2022-08-16T03:24:55.129Z,9.6
2022-08-16T03:29:03.021Z,8.7
2022-08-16T03:31:06.955Z,12.6
2022-08-16T03:33:10.916Z,14.1
2022-08-16T03:35:18.109Z,8.1
2022-08-16T03:37:21.614Z,12.3
2022-08-16T03:39:25.649Z,9
2022-08-16T03:41:50.350Z,15.5
2022-08-16T03:43:51.832Z,16.5
2022-08-16T03:45:37.397Z,9.6
2022-08-16T03:47:41.357Z,15.6
2022-08-16T03:51:52.219Z,8.1
2022-08-16T03:53:57.501Z,16.9
2022-08-16T03:55:59.949Z,14.6
2022-08-16T03:58:03.908Z,16.2
2022-08-16T04:00:07.855Z,10.8
2022-08-16T04:02:22.416Z,17.4
2022-08-16T04:04:32.577Z,23
2022-08-16T04:06:22.545Z,11.7
2022-08-16T04:08:27.044Z,18.6
2022-08-16T04:09:29.894Z,13.1
2022-08-16T04:19:54.943Z,12.4
2022-08-16T04:24:00.375Z,13.3
2022-08-16T04:26:04.325Z,12.5
2022-08-16T04:28:51.967Z,13.6
2022-08-16T04:30:12.204Z,14.7
2022-08-16T04:32:19.863Z,17.4
2022-08-16T04:34:24.888Z,15.9
2022-08-16T04:36:26.881Z,25.9
2022-08-16T04:38:30.801Z,13.1
2022-08-16T04:40:35.014Z,17.8
2022-08-16T04:42:38.707Z,13.5
2022-08-16T04:44:53.350Z,17.2
2022-08-16T04:53:01.317Z,16.2
2022-08-16T04:55:05.265Z,17.9
2022-08-16T04:59:13.159Z,15.3
2022-08-16T05:01:19.974Z,18.9
2022-08-16T05:03:23.948Z,15.2
2022-08-16T05:06:44.791Z,20.5
2022-08-16T05:08:35.171Z,15.6
2022-08-16T05:10:39.113Z,15.4
2022-08-16T05:12:44.868Z,24.1
2022-08-16T05:15:01.981Z,19.4
2022-08-16T05:16:53.758Z,20.2
2022-08-16T05:18:58.376Z,18.2
2022-08-16T05:21:09.772Z,17.1
2022-08-16T05:23:05.593Z,19.5
2022-08-16T05:25:09.537Z,25.6
2022-08-16T05:27:13.470Z,18
2022-08-16T05:29:20.650Z,23.9
2022-08-16T05:31:24.162Z,29.2
2022-08-16T05:33:28.098Z,23.7
2022-08-16T05:35:32.033Z,24.7
2022-08-16T05:37:39.928Z,22.9
2022-08-16T05:39:40.914Z,24.4
2022-08-16T05:41:45.119Z,24.6
2022-08-16T05:43:50.531Z,21.3
2022-08-16T05:45:54.645Z,25.7
2022-08-16T05:47:59.956Z,21.4
2022-08-16T05:50:02.337Z,18.6
2022-08-16T05:52:11.668Z,27.5
2022-08-16T05:54:11.485Z,20.2
2022-08-16T05:56:19.495Z,19.3
2022-08-16T05:58:32.745Z,21.2
2022-08-16T06:00:24.591Z,20.1
2022-08-16T06:02:29.003Z,18.8
2022-08-16T06:04:52.492Z,16.6
2022-08-16T06:06:57.249Z,17.7
2022-08-16T06:09:00.285Z,26
2022-08-16T06:11:10.254Z,21.5
2022-08-16T06:13:10.924Z,30
2022-08-16T06:15:15.062Z,19.2
2022-08-16T06:17:18.744Z,16.9
2022-08-16T06:23:32.152Z,18.3
2022-08-16T06:25:39.187Z,22.3
2022-08-16T06:27:41.145Z,21
2022-08-16T06:29:49.840Z,18.2
2022-08-16T06:31:50.540Z,23.2
2022-08-16T06:38:00.719Z,22.2
2022-08-16T06:44:20.952Z,21.3
2022-08-16T06:48:32.879Z,19.9
2022-08-16T06:52:57.810Z,27.9
2022-08-16T06:54:37.722Z,24.8
2022-08-16T06:56:41.581Z,31.8
2022-08-16T06:58:45.488Z,20.1
2022-08-16T07:03:57.477Z,29.3
2022-08-16T07:06:00.566Z,22.5
2022-08-16T07:08:07.332Z,26.7
2022-08-16T07:10:11.234Z,19
2022-08-16T07:12:15.413Z,25
2022-08-16T07:14:26.348Z,20.1
2022-08-16T07:16:22.930Z,25.1
2022-08-16T07:20:47.043Z,23.3
2022-08-16T07:22:39.742Z,20
2022-08-16T07:24:45.796Z,24.3
2022-08-16T07:26:48.566Z,19.8
2022-08-16T07:28:49.009Z,33
2022-08-16T07:30:52.835Z,22.6
2022-08-16T07:35:00.503Z,23.2
2022-08-16T07:37:07.177Z,21.2
2022-08-16T07:39:10.986Z,18.8
2022-08-16T07:41:14.881Z,19.1
2022-08-16T07:43:18.598Z,15.2
2022-08-16T07:45:22.384Z,16.9
2022-08-16T07:47:31.850Z,11.8
2022-08-16T07:49:32.532Z,22.5
2022-08-16T07:56:48.941Z,17.5
2022-08-16T07:58:55.409Z,19.5
2022-08-16T08:00:56.495Z,13.2
2022-08-16T08:03:00.181Z,16.1
2022-08-16T08:05:06.814Z,11.5
2022-08-16T08:07:10.519Z,9.3
2022-08-16T08:09:14.257Z,8.6
2022-08-16T08:11:18.317Z,9.3
2022-08-16T08:13:41.816Z,13.7
2022-08-16T08:17:29.100Z,7.5
2022-08-16T08:19:35.690Z,15.2
2022-08-16T08:23:43.226Z,17.8
2022-08-16T08:25:53.854Z,7
2022-08-16T08:27:50.458Z,7.9
2022-08-16T08:30:43.918Z,11.3
2022-08-16T08:31:57.802Z,7.1
2022-08-16T08:34:04.893Z,6.2
2022-08-16T08:40:15.449Z,16.1
2022-08-16T08:42:25.115Z,9.9
2022-08-16T08:44:29.272Z,7.1
2022-08-16T08:46:26.271Z,7.3
2022-08-16T08:48:35.741Z,5.1
2022-08-16T08:50:36.450Z,5.7
2022-08-16T08:52:40.765Z,3.9
2022-08-16T08:53:43.332Z,5.7
2022-08-16T08:55:46.954Z,6.2
2022-08-16T08:57:50.557Z,6.6
2022-08-16T08:59:54.183Z,7.4
2022-08-16T09:02:00.678Z,9.2
2022-08-16T09:04:04.563Z,4.9
2022-08-16T09:06:07.901Z,5.1
2022-08-16T09:08:11.509Z,3.8
2022-08-16T09:10:20.863Z,14.8
2022-08-16T09:12:35.379Z,13.8
2022-08-16T09:14:23.961Z,5.7
2022-08-16T09:17:00.783Z,4.8
2022-08-16T09:18:35.403Z,6.5
2022-08-16T09:30:56.966Z,4.4
2022-08-16T09:33:00.549Z,9.7
2022-08-16T09:39:16.232Z,7.9
2022-08-16T09:41:15.131Z,5.7
2022-08-16T09:43:44.751Z,4.3
2022-08-16T09:47:28.616Z,4.6
2022-08-16T09:49:36.904Z,3.7
2022-08-16T09:51:57.272Z,7.2
2022-08-16T09:53:59.452Z,4.1
2022-08-16T09:56:03.030Z,4.5
2022-08-16T10:06:23.794Z,4.8
2022-08-16T10:08:27.684Z,8.3
2022-08-16T10:10:31.347Z,9.2
2022-08-16T10:14:40.949Z,5.4
2022-08-16T10:19:02.147Z,4
2022-08-16T10:27:25.602Z,5.5
2022-08-16T10:29:08.759Z,4.3
2022-08-16T10:33:15.905Z,13.3
2022-08-16T10:35:19.463Z,5.8
2022-08-16T10:37:35.851Z,5.8
2022-08-16T10:39:26.687Z,8.3
2022-08-16T10:41:33.080Z,5.5
2022-08-16T10:43:36.669Z,7.6
2022-08-16T10:45:40.247Z,7.5
2022-08-16T10:46:43.507Z,8
2022-08-16T10:48:47.277Z,17.9
2022-08-16T10:50:50.654Z,10.8
2022-08-16T10:52:58.668Z,8.2
2022-08-16T10:55:40.986Z,6.3
2022-08-16T10:57:04.624Z,12.8
2022-08-16T10:59:43.981Z,10.9
2022-08-16T11:01:43.716Z,5.8
2022-08-16T11:03:42.210Z,7.9
2022-08-16T11:05:18.732Z,7.9
2022-08-16T11:07:53.831Z,10.6
2022-08-16T11:09:29.229Z,7.8
2022-08-16T11:11:32.795Z,5.5
2022-08-16T11:13:59.761Z,9.3
2022-08-16T11:15:40.031Z,10.1
2022-08-16T11:17:45.064Z,8.2
2022-08-16T11:20:41.276Z,7.7
2022-08-16T11:23:58.692Z,6.8
2022-08-16T11:26:16.552Z,7.1
2022-08-16T11:28:04.475Z,8.3
2022-08-16T11:30:09.021Z,6.5
2022-08-16T11:32:11.647Z,7
2022-08-16T11:34:15.214Z,7.1
2022-08-16T11:36:27.926Z,6.2
2022-08-16T11:40:32.642Z,4.9
2022-08-16T11:42:37.068Z,4.2
2022-08-16T11:43:35.644Z,7.7
2022-08-16T11:45:39.198Z,8.9
2022-08-16T11:47:42.757Z,5.5
2022-08-16T11:49:46.324Z,6.9
2022-08-16T11:51:52.787Z,4.2
2022-08-16T11:53:56.340Z,3.7
2022-08-16T11:55:59.913Z,4.6
2022-08-16T11:58:03.479Z,5.8
2022-08-16T12:00:07.265Z,10.7
2022-08-16T12:02:31.513Z,4.2
2022-08-16T12:04:14.255Z,5.4
2022-08-16T12:06:24.589Z,5.4
2022-08-16T12:08:26.007Z,11.6
2022-08-16T12:12:32.760Z,30.3
2022-08-16T12:14:35.485Z,5.5
2022-08-16T12:16:38.462Z,11.2
2022-08-16T12:18:42.071Z,5.7
2022-08-16T12:20:48.487Z,4.4
2022-08-16T12:22:52.021Z,5.3
2022-08-16T12:24:55.597Z,5.1
2022-08-16T12:26:59.955Z,4
2022-08-16T12:29:02.668Z,4.8
2022-08-16T12:39:23.704Z,3.8
2022-08-16T12:40:29.151Z,5.2
2022-08-16T12:42:34.477Z,3.5
2022-08-16T12:44:36.140Z,5.8
2022-08-16T12:46:37.318Z,4.8
2022-08-16T12:50:50.163Z,6.4
2022-08-16T12:52:52.475Z,4.4
2022-08-16T12:56:57.923Z,9.7
2022-08-16T12:59:01.490Z,4.1
2022-08-16T13:01:05.143Z,13.4
2022-08-16T13:03:11.489Z,2.7
2022-08-16T13:05:15.054Z,7.4
2022-08-16T13:07:18.591Z,12.8
2022-08-16T13:09:22.173Z,9
2022-08-16T13:11:25.743Z,6.5
2022-08-16T13:13:29.387Z,8.9
2022-08-16T13:17:43.281Z,4
2022-08-16T13:21:46.622Z,4.2
2022-08-16T13:23:50.255Z,11.9
2022-08-16T13:25:54.822Z,11.1
2022-08-16T13:28:14.635Z,8.7
2022-08-16T13:30:01.183Z,6.4
2022-08-16T13:32:08.325Z,8.6
2022-08-16T13:34:11.381Z,4.9
2022-08-16T13:36:32.167Z,7.1
2022-08-16T13:40:36.556Z,9.7
2022-08-16T13:42:42.990Z,8.5
2022-08-16T13:44:56.448Z,7.3
2022-08-16T13:46:51.895Z,9.8
2022-08-16T13:48:55.567Z,10.4
2022-08-16T13:51:03.749Z,11.4
2022-08-16T13:55:06.566Z,7
2022-08-16T13:57:10.895Z,8
2022-08-16T13:59:20.440Z,7
2022-08-16T14:01:20.447Z,6.7
2022-08-16T14:03:24.107Z,5.1
2022-08-16T14:07:31.409Z,8
2022-08-16T14:09:35.063Z,5.1
2022-08-16T14:11:38.731Z,5.7
2022-08-16T14:15:48.939Z,10.1
2022-08-16T14:18:15.610Z,5.5
2022-08-16T14:19:59.662Z,10.3
2022-08-16T14:26:07.230Z,5.9
2022-08-16T14:30:17.447Z,5.6
2022-08-16T14:33:24.410Z,4.8
2022-08-16T14:37:32.060Z,8.2
2022-08-16T14:39:35.479Z,16
2022-08-16T14:41:42.005Z,6.2
2022-08-16T14:43:45.679Z,10.5
2022-08-16T14:45:50.333Z,4.6
2022-08-16T14:47:53.066Z,5
2022-08-16T14:49:56.747Z,6.8
2022-08-16T14:52:00.471Z,5.7
2022-08-16T14:54:04.157Z,6.3
2022-08-16T14:56:15.048Z,14.1
2022-08-16T14:58:19.678Z,5.2
2022-08-16T15:00:18.255Z,12.9
2022-08-16T15:02:34.034Z,5.7
2022-08-16T15:04:32.279Z,8.4
2022-08-16T15:06:29.311Z,8.1
2022-08-16T15:08:36.370Z,6.9
2022-08-16T15:10:42.980Z,10.6
2022-08-16T15:12:43.280Z,6
2022-08-16T15:14:46.995Z,6.1
2022-08-16T15:16:50.717Z,7.2
2022-08-16T15:18:54.421Z,10.7
2022-08-16T15:20:58.139Z,21.5
2022-08-16T15:23:01.855Z,7.8
2022-08-16T15:25:08.450Z,12.9
2022-08-16T15:27:12.174Z,12.6
2022-08-16T15:29:15.872Z,12.1
2022-08-16T15:34:26.622Z,13.1
2022-08-16T15:36:30.344Z,7.8
2022-08-16T15:39:02.307Z,8.1
2022-08-16T15:40:57.783Z,9.2
2022-08-16T15:42:47.269Z,11.4
2022-08-16T15:44:52.045Z,13.9
2022-08-16T15:46:54.819Z,13.1
2022-08-16T15:48:55.544Z,7.9
2022-08-16T15:50:59.254Z,11.5
2022-08-16T15:53:05.885Z,12.1
2022-08-16T15:55:23.927Z,12.7
2022-08-16T15:57:13.353Z,22.3
2022-08-16T15:59:17.094Z,22
2022-08-16T16:01:20.901Z,26.4
2022-08-16T16:03:24.544Z,12.9
2022-08-16T16:05:28.284Z,14.6
2022-08-16T16:07:34.892Z,16.2
2022-08-16T16:09:38.610Z,13
2022-08-16T16:13:46.068Z,16.9
2022-08-16T16:19:57.241Z,11.2
2022-08-16T16:22:03.878Z,10.4
2022-08-16T16:27:14.637Z,21.5
2022-08-16T16:29:18.386Z,16
2022-08-16T16:31:22.114Z,12.6
2022-08-16T16:33:25.923Z,16.5
2022-08-16T16:35:33.010Z,20.2
2022-08-16T16:37:36.245Z,12.4
2022-08-16T16:39:40.076Z,16.9
2022-08-16T16:41:43.771Z,20.6
2022-08-16T16:43:47.542Z,12
2022-08-16T16:45:51.294Z,26.8
2022-08-16T16:47:55.066Z,31.5
2022-08-16T16:50:01.742Z,24.9
2022-08-16T16:58:18.029Z,14.9
2022-08-16T17:00:25.942Z,9.8
2022-08-16T17:08:40.862Z,15.8
2022-08-16T17:10:46.023Z,16.7
2022-08-16T17:12:47.500Z,16.5
2022-08-16T17:14:50.141Z,31.9
2022-08-16T17:16:53.941Z,28.9
2022-08-16T17:19:16.263Z,19.6
2022-08-16T17:21:04.393Z,19.3
2022-08-16T17:23:08.192Z,25.6
2022-08-16T17:25:36.418Z,16.3
2022-08-16T17:27:35.906Z,18.3
2022-08-16T17:29:45.894Z,17.2
2022-08-16T17:31:47.004Z,23.4
2022-08-16T17:33:54.375Z,23.5
2022-08-16T17:35:55.403Z,18.7
2022-08-16T17:37:58.004Z,21.8
2022-08-16T17:40:04.128Z,24.6
2022-08-16T17:42:05.329Z,22.7
2022-08-16T17:44:09.139Z,22.4
2022-08-16T17:48:19.597Z,29.2
2022-08-16T17:50:23.420Z,15.5
2022-08-16T17:52:27.202Z,16.2
2022-08-16T17:54:31.145Z,16.1
2022-08-16T17:56:34.831Z,29.6
2022-08-16T17:58:38.622Z,14
2022-08-16T18:00:45.326Z,18.3
2022-08-16T18:02:49.134Z,25.8
2022-08-16T18:04:52.967Z,19
2022-08-16T18:06:56.785Z,14.6
2022-08-16T18:09:03.523Z,19.4
2022-08-16T18:11:04.428Z,32
2022-08-16T18:13:08.251Z,19.5
2022-08-16T18:15:14.952Z,18.1
2022-08-16T18:17:18.795Z,17.2
2022-08-16T18:19:22.629Z,18.1
2022-08-16T18:20:25.981Z,27.6
2022-08-16T18:22:30.553Z,15.3
2022-08-16T18:24:33.668Z,25.4
2022-08-16T18:26:37.495Z,27.9
2022-08-16T18:28:44.199Z,19.4
2022-08-16T18:30:51.602Z,28.9
2022-08-16T18:32:51.935Z,17.3
2022-08-16T18:34:55.753Z,18.3
2022-08-16T18:36:59.627Z,17
2022-08-16T18:39:03.561Z,19.6
2022-08-16T18:41:07.364Z,19.8
2022-08-16T18:45:17.904Z,19.6
2022-08-16T18:47:21.777Z,19.5
2022-08-16T18:49:25.650Z,18.5
2022-08-16T18:51:29.508Z,17.6
2022-08-16T18:53:33.376Z,18.7
2022-08-16T18:55:37.267Z,19.1
2022-08-16T18:57:43.983Z,24.4
2022-08-16T19:10:07.250Z,25.1
2022-08-16T19:12:15.709Z,24
2022-08-16T19:14:17.869Z,17.7
2022-08-16T19:17:25.112Z,24.3
2022-08-16T19:19:28.999Z,16.9
2022-08-16T19:21:32.888Z,35.7
2022-08-16T19:23:37.088Z,21.2
2022-08-16T19:25:48.623Z,19.1
2022-08-16T19:27:47.536Z,12.9
2022-08-16T19:29:51.281Z,17.9
2022-08-16T19:31:55.164Z,15.9
2022-08-16T19:33:59.055Z,16.4
2022-08-16T19:36:02.968Z,16.4
2022-08-16T19:38:06.847Z,24.5
2022-08-16T19:40:25.592Z,18.5
2022-08-16T19:46:26.723Z,22.4
2022-08-16T19:48:30.601Z,26.1
2022-08-16T19:52:38.359Z,20.1
2022-08-16T19:54:45.103Z,22.5
2022-08-16T19:56:48.989Z,17.4
2022-08-16T19:59:17.491Z,16.7
2022-08-16T20:00:56.750Z,13.9
2022-08-16T20:05:04.549Z,20.6
2022-08-16T20:07:08.433Z,18.2
2022-08-16T20:09:16.015Z,17.4
2022-08-16T20:11:19.057Z,30.2
2022-08-16T20:13:22.941Z,21.3
2022-08-16T20:14:26.708Z,25.5
2022-08-16T20:16:30.204Z,25.6
2022-08-16T20:18:34.101Z,20
2022-08-16T20:20:37.975Z,16.5
2022-08-16T20:22:53.599Z,21.3
2022-08-16T20:24:48.603Z,23.2
2022-08-16T20:26:52.500Z,29.1
2022-08-16T20:28:56.386Z,22.6
2022-08-16T20:31:00.282Z,30.1
2022-08-16T20:35:08.063Z,49.8
2022-08-16T20:39:18.717Z,23
2022-08-16T20:41:22.609Z,21.4
2022-08-16T20:43:26.508Z,16.2
2022-08-16T20:47:34.309Z,23.1
2022-08-16T20:49:38.210Z,17.7
2022-08-16T20:51:46.882Z,27.8
2022-08-16T20:53:48.868Z,16.2
2022-08-16T20:55:52.769Z,19.5
2022-08-16T20:57:56.699Z,23.4
2022-08-16T21:00:00.579Z,20.3
2022-08-16T21:02:04.518Z,24.7
2022-08-16T21:12:50.828Z,28.3
2022-08-16T21:14:54.473Z,26.1
2022-08-16T21:21:09.147Z,32.1
2022-08-16T21:25:16.848Z,26
2022-08-16T21:27:20.745Z,22.2
2022-08-16T21:31:28.583Z,23
2022-08-16T21:39:47.116Z,31.7
2022-08-16T21:41:51.015Z,24.3
2022-08-16T21:43:54.896Z,24.7
2022-08-16T21:50:09.479Z,28.8
2022-08-16T21:54:17.322Z,31.1
2022-08-16T22:00:29.086Z,24.7
2022-08-16T22:07:47.044Z,28.9
2022-08-16T22:13:59.387Z,27.7
2022-08-16T22:16:05.562Z,27.9
2022-08-16T22:18:09.458Z,26.5
2022-08-16T22:20:13.389Z,35.5
2022-08-16T22:22:17.313Z,24.4
2022-08-16T22:24:21.254Z,33.1
2022-08-16T22:26:29.051Z,26
2022-08-16T22:28:29.048Z,26.7
2022-08-16T22:30:35.834Z,29.6
2022-08-16T22:32:39.734Z,24.6
2022-08-16T22:34:43.672Z,23.1
2022-08-16T22:36:47.586Z,33.5
2022-08-16T22:38:57.071Z,29.9
2022-08-16T22:40:55.448Z,28.5
2022-08-16T22:42:59.373Z,28
2022-08-16T22:45:06.096Z,25.3
2022-08-16T22:47:10.021Z,29.8
2022-08-16T22:49:13.948Z,25.3
2022-08-16T22:51:17.890Z,23.6
2022-08-16T22:53:21.799Z,25.1
2022-08-16T22:55:26.154Z,25.8
2022-08-16T22:57:29.654Z,27.9
2022-08-16T22:59:36.413Z,26.3
2022-08-16T23:01:40.374Z,26.7
2022-08-16T23:04:47.616Z,28.2
2022-08-16T23:06:51.536Z,27.9
2022-08-16T23:10:59.386Z,24.5
2022-08-16T23:13:06.136Z,21.9
2022-08-16T23:15:10.055Z,27.6
2022-08-16T23:17:13.989Z,23.8
2022-08-16T23:19:17.936Z,29.4
2022-08-16T23:21:21.834Z,24.4
2022-08-16T23:27:36.446Z,30.4
2022-08-16T23:29:40.350Z,29
2022-08-16T23:33:48.214Z,24.4
2022-08-16T23:35:52.126Z,22.7
2022-08-16T23:37:56.039Z,26.1
2022-08-16T23:40:00.026Z,23.8
2022-08-16T23:42:06.751Z,28
2022-08-16T23:46:14.574Z,24.7
2022-08-16T23:48:18.503Z,26.9
2022-08-16T23:52:53.765Z,26.9
2022-08-16T23:54:30.291Z,27.8
2022-08-16T23:56:40.524Z,25.9
2022-08-16T23:58:40.961Z,26.1
